Time;durP1;ratioP1;P1;durP2;ratioP2;P2;SDS_P1;SDS_P2;PMS_P1;PMS_P2;Temp;Humidity;BMP_temperature;BMP_pressure;BME280_temperature;BME280_humidity;BME280_pressure;Samples;Min_cycle;Max_cycle;Signal;HPM_P1;HPM_P2
2023/12/29 00:02:20;;;;;;;15.30;2.73;;;10.30;1.00;;;;;;5031169;28;20184;-57
2023/12/29 00:04:46;;;;;;;7.87;2.77;;;10.20;1.00;;;;;;5026801;28;20278;-55
2023/12/29 00:07:11;;;;;;;11.83;2.93;;;10.00;5.40;;;;;;5029632;28;20253;-55
2023/12/29 00:09:43;;;;;;;13.70;3.00;;;9.90;43.50;;;;;;5030325;28;20215;-56
2023/12/29 00:12:09;;;;;;;6.90;2.50;;;9.80;99.90;;;;;;5025753;28;20187;-55
2023/12/29 00:14:38;;;;;;;6.47;2.43;;;9.70;99.90;;;;;;5028732;28;20449;-56
2023/12/29 00:17:04;;;;;;;11.73;2.70;;;9.60;99.90;;;;;;5029115;28;20187;-56
2023/12/29 00:19:29;;;;;;;14.70;3.50;;;9.50;1.00;;;;;;5029377;28;20438;-55
2023/12/29 00:21:55;;;;;;;13.27;3.40;;;9.50;1.00;;;;;;5029085;28;20191;-56
2023/12/29 00:24:20;;;;;;;10.23;3.40;;;9.40;99.90;;;;;;5025936;28;20260;-56
2023/12/29 00:26:47;;;;;;;14.57;2.80;;;9.40;99.90;;;;;;5031235;28;20198;-55
2023/12/29 00:29:15;;;;;;;12.57;3.20;;;9.40;99.90;;;;;;5027035;28;20191;-56
2023/12/29 00:31:40;;;;;;;17.87;3.30;;;9.40;99.90;;;;;;5027612;28;20421;-55
2023/12/29 00:34:06;;;;;;;11.80;3.30;;;9.30;1.00;;;;;;5024453;28;21229;-56
2023/12/29 00:36:32;;;;;;;16.23;3.43;;;9.30;1.00;;;;;;5029779;28;20198;-56
2023/12/29 00:38:57;;;;;;;10.73;3.30;;;9.30;99.90;;;;;;5028303;28;20186;-55
2023/12/29 00:41:23;;;;;;;14.40;3.17;;;9.40;99.90;;;;;;5026420;28;20215;-55
2023/12/29 00:43:48;;;;;;;8.13;3.10;;;9.40;99.90;;;;;;5028909;28;20191;-55
2023/12/29 00:46:15;;;;;;;13.20;3.10;;;9.40;99.90;;;;;;5028161;28;20199;-55
2023/12/29 00:48:41;;;;;;;9.67;2.70;;;9.40;80.80;;;;;;5026857;28;20183;-55
2023/12/29 00:51:07;;;;;;;10.63;3.00;;;9.50;1.00;;;;;;5027088;28;20476;-54
2023/12/29 00:53:35;;;;;;;14.80;3.63;;;9.40;1.00;;;;;;5025938;28;20213;-54
2023/12/29 00:56:01;;;;;;;9.20;3.30;;;9.40;99.90;;;;;;5027167;28;20223;-55
2023/12/29 00:58:26;;;;;;;10.47;3.30;;;9.40;99.90;;;;;;5031252;28;20430;-57
2023/12/29 01:00:52;;;;;;;16.13;3.60;;;9.40;8.30;;;;;;5029575;28;20648;-56
2023/12/29 01:03:18;;;;;;;19.20;3.20;;;9.50;1.00;;;;;;5028992;28;20581;-55
2023/12/29 01:05:43;;;;;;;8.50;2.87;;;9.60;1.00;;;;;;5028925;28;20183;-55
2023/12/29 01:08:09;;;;;;;6.57;2.63;;;9.60;1.00;;;;;;5029179;28;20560;-55
2023/12/29 01:10:34;;;;;;;10.83;2.90;;;9.60;1.00;;;;;;5027465;28;20210;-55
2023/12/29 01:13:00;;;;;;;10.53;3.03;;;9.60;1.00;;;;;;5028434;28;20188;-54
2023/12/29 01:15:25;;;;;;;10.23;2.93;;;9.70;1.00;;;;;;5026558;28;20195;-55
2023/12/29 01:17:51;;;;;;;19.03;3.47;;;9.70;1.00;;;;;;5030024;28;20199;-55
2023/12/29 01:20:16;;;;;;;10.83;3.50;;;9.70;1.00;;;;;;5028504;28;20184;-56
2023/12/29 01:22:42;;;;;;;11.20;3.53;;;9.70;1.00;;;;;;5029325;28;20640;-54
2023/12/29 01:25:08;;;;;;;9.13;2.80;;;9.60;1.00;;;;;;5028692;28;20195;-55
2023/12/29 01:27:33;;;;;;;14.83;3.30;;;9.60;1.00;;;;;;5028055;28;20190;-55
2023/12/29 01:29:59;;;;;;;17.80;3.20;;;9.60;48.70;;;;;;5028197;28;20230;-55
2023/12/29 01:32:25;;;;;;;14.57;3.10;;;9.50;99.90;;;;;;5028312;28;20199;-54
2023/12/29 01:34:52;;;;;;;11.60;3.10;;;9.40;99.90;;;;;;5030194;28;20446;-55
2023/12/29 01:37:18;;;;;;;12.73;3.17;;;9.40;1.00;;;;;;5033393;28;20175;-55
2023/12/29 01:39:43;;;;;;;7.53;3.30;;;9.40;1.00;;;;;;5030503;28;20889;-55
2023/12/29 01:42:11;;;;;;;9.70;3.10;;;9.40;1.00;;;;;;5030254;28;20304;-54
2023/12/29 01:44:36;;;;;;;11.53;3.40;;;9.40;24.20;;;;;;5033206;28;20545;-54
2023/12/29 01:47:05;;;;;;;14.27;3.07;;;9.40;99.90;;;;;;5029927;28;20450;-54
2023/12/29 01:49:32;;;;;;;12.67;3.50;;;9.40;37.90;;;;;;5032734;28;20215;-54
2023/12/29 01:52:00;;;;;;;12.70;3.03;;;9.40;1.00;;;;;;5031379;28;20442;-54
2023/12/29 01:54:32;;;;;;;15.20;3.53;;;9.50;99.90;;;;;;5028609;28;20433;-55
2023/12/29 01:57:00;;;;;;;10.87;3.10;;;9.50;99.90;;;;;;5032431;28;20454;-56
2023/12/29 01:59:26;;;;;;;8.00;2.93;;;9.60;95.60;;;;;;5030005;28;20483;-54
2023/12/29 02:01:55;;;;;;;11.73;2.93;;;9.60;1.00;;;;;;5033031;28;20473;-55
2023/12/29 02:04:23;;;;;;;4.63;2.53;;;9.60;1.00;;;;;;5030704;28;20446;-54
2023/12/29 02:06:48;;;;;;;7.90;3.33;;;9.70;1.00;;;;;;5031134;28;20473;-55
2023/12/29 02:09:16;;;;;;;7.80;3.27;;;9.70;1.00;;;;;;5032668;28;20495;-55
2023/12/29 02:11:42;;;;;;;10.80;3.53;;;9.70;1.00;;;;;;5029681;28;20195;-54
2023/12/29 02:14:08;;;;;;;7.60;2.80;;;9.70;1.00;;;;;;5032685;28;20437;-55
2023/12/29 02:16:52;;;;;;;6.67;3.00;;;9.70;1.00;;;;;;5029571;28;20214;-55
2023/12/29 02:19:39;;;;;;;14.00;2.87;;;9.80;1.00;;;;;;5029585;28;20450;-54
2023/12/29 02:22:05;;;;;;;11.77;2.67;;;9.80;1.00;;;;;;5029807;28;20815;-55
2023/12/29 02:24:33;;;;;;;13.07;2.57;;;9.90;99.90;;;;;;5031416;28;20438;-55
2023/12/29 02:27:06;;;;;;;8.67;2.87;;;9.90;99.90;;;;;;5030197;28;21595;-55
2023/12/29 02:29:33;;;;;;;12.67;2.53;;;9.90;99.90;;;;;;5031271;28;20512;-55
2023/12/29 02:32:00;;;;;;;10.27;2.90;;;9.80;99.90;;;;;;5031143;28;20439;-55
2023/12/29 02:34:29;;;;;;;9.63;2.70;;;9.80;99.90;;;;;;5027098;28;20446;-54
2023/12/29 02:36:56;;;;;;;6.23;2.50;;;9.90;99.90;;;;;;5027831;28;20191;-55
2023/12/29 02:39:22;;;;;;;5.63;2.60;;;9.90;99.90;;;;;;5029920;28;20438;-54
2023/12/29 02:41:47;;;;;;;8.23;3.57;;;9.90;99.90;;;;;;5031827;28;20584;-54
2023/12/29 02:44:13;;;;;;;4.47;2.47;;;9.90;99.90;;;;;;5031963;28;20195;-55
2023/12/29 02:46:39;;;;;;;5.03;2.60;;;9.90;99.90;;;;;;5031772;28;20655;-55
2023/12/29 02:49:05;;;;;;;12.10;2.90;;;9.90;99.90;;;;;;5030541;28;20431;-56
2023/12/29 02:51:30;;;;;;;13.50;3.00;;;10.10;99.90;;;;;;5030028;28;20211;-55
2023/12/29 02:53:56;;;;;;;4.00;2.20;;;9.90;99.90;;;;;;5030809;28;20695;-56
2023/12/29 02:56:22;;;;;;;7.40;2.07;;;10.00;99.90;;;;;;5030204;28;20187;-56
2023/12/29 02:58:48;;;;;;;4.63;2.00;;;10.00;99.90;;;;;;5031653;28;20195;-55
2023/12/29 03:01:13;;;;;;;7.40;2.00;;;10.00;99.90;;;;;;5029941;28;20603;-55
2023/12/29 03:03:39;;;;;;;4.50;1.97;;;10.00;99.90;;;;;;5030511;28;20430;-55
2023/12/29 03:06:06;;;;;;;4.93;2.40;;;10.00;99.90;;;;;;5029426;28;20192;-54
2023/12/29 03:08:32;;;;;;;10.43;2.10;;;10.00;99.90;;;;;;5029040;28;20933;-55
2023/12/29 03:10:58;;;;;;;9.27;2.17;;;10.00;99.90;;;;;;5033564;28;20568;-55
2023/12/29 03:13:24;;;;;;;6.17;2.40;;;10.00;99.90;;;;;;5028582;28;20442;-55
2023/12/29 03:15:49;;;;;;;7.23;2.13;;;10.00;99.90;;;;;;5031122;28;20445;-55
2023/12/29 03:18:15;;;;;;;9.53;1.80;;;10.10;99.90;;;;;;5030401;28;20186;-55
2023/12/29 03:20:41;;;;;;;8.97;1.80;;;10.00;99.90;;;;;;5030292;28;20282;-55
2023/12/29 03:23:06;;;;;;;7.13;1.70;;;9.90;99.90;;;;;;5029499;28;20199;-55
2023/12/29 03:25:32;;;;;;;5.80;1.77;;;9.90;99.90;;;;;;5029720;28;20341;-55
2023/12/29 03:27:58;;;;;;;7.30;1.87;;;9.80;99.90;;;;;;5030018;28;20187;-55
2023/12/29 03:30:24;;;;;;;5.27;1.53;;;9.80;99.90;;;;;;5029076;28;20550;-55
2023/12/29 03:32:49;;;;;;;5.13;1.70;;;9.70;99.90;;;;;;5030445;28;20445;-55
2023/12/29 03:35:16;;;;;;;5.00;1.77;;;9.70;99.90;;;;;;5032624;28;20219;-55
2023/12/29 03:37:42;;;;;;;3.80;1.40;;;9.70;99.90;;;;;;5029864;28;20338;-55
2023/12/29 03:40:08;;;;;;;8.23;1.70;;;9.60;99.90;;;;;;5028692;28;20879;-55
2023/12/29 03:42:34;;;;;;;3.23;1.57;;;9.60;99.90;;;;;;5029661;28;20247;-54
2023/12/29 03:44:59;;;;;;;4.20;1.90;;;9.60;99.90;;;;;;5030799;28;20633;-54
2023/12/29 03:47:25;;;;;;;3.13;1.40;;;9.60;99.90;;;;;;5030159;28;20215;-55
2023/12/29 03:49:50;;;;;;;4.43;1.53;;;9.60;99.90;;;;;;5029077;28;20227;-58
2023/12/29 03:52:16;;;;;;;6.20;1.63;;;9.60;99.90;;;;;;5029399;28;20191;-55
2023/12/29 03:54:41;;;;;;;3.93;1.77;;;9.60;99.90;;;;;;5030002;28;20184;-55
2023/12/29 03:57:07;;;;;;;5.00;1.70;;;9.60;99.90;;;;;;5027325;28;20192;-55
2023/12/29 03:59:35;;;;;;;8.73;1.97;;;9.60;99.90;;;;;;5030280;28;20202;-55
2023/12/29 04:02:01;;;;;;;6.30;1.60;;;9.60;99.90;;;;;;5029192;28;20194;-55
2023/12/29 04:04:26;;;;;;;5.00;2.10;;;9.50;99.90;;;;;;5027648;28;20434;-55
2023/12/29 04:06:53;;;;;;;7.37;2.10;;;9.50;1.00;;;;;;5032028;28;20635;-55
2023/12/29 04:09:18;;;;;;;3.87;1.70;;;9.50;1.00;;;;;;5028315;28;20682;-55
2023/12/29 04:11:44;;;;;;;9.50;2.10;;;9.40;1.00;;;;;;5030267;28;20454;-55
2023/12/29 04:14:12;;;;;;;11.80;2.40;;;9.40;99.90;;;;;;5026798;28;21498;-54
2023/12/29 04:16:38;;;;;;;3.17;1.60;;;9.40;99.90;;;;;;5028413;28;22039;-55
2023/12/29 04:19:04;;;;;;;3.23;1.17;;;9.20;1.00;;;;;;5026591;28;20438;-54
2023/12/29 04:21:29;;;;;;;5.70;1.30;;;9.00;99.90;;;;;;5029753;28;20635;-54
2023/12/29 04:23:55;;;;;;;5.80;1.10;;;8.70;99.90;;;;;;5029902;28;20184;-55
2023/12/29 04:26:20;;;;;;;3.17;1.13;;;8.50;99.90;;;;;;5027904;28;20194;-55
2023/12/29 04:28:46;;;;;;;3.67;1.60;;;8.20;99.90;;;;;;5029144;28;20190;-55
2023/12/29 04:31:11;;;;;;;5.40;1.40;;;8.00;1.00;;;;;;5028640;28;20211;-55
2023/12/29 04:33:37;;;;;;;3.30;1.10;;;7.90;99.90;;;;;;5033651;28;20183;-55
2023/12/29 04:36:02;;;;;;;3.13;1.07;;;7.70;1.00;;;;;;5027632;28;20254;-55
2023/12/29 04:38:29;;;;;;;1.83;0.90;;;7.60;1.00;;;;;;5029275;28;20191;-55
2023/12/29 04:40:54;;;;;;;7.10;1.00;;;7.50;1.00;;;;;;5028251;28;20233;-55
2023/12/29 04:43:20;;;;;;;6.20;1.20;;;7.40;1.00;;;;;;5028691;28;20470;-55
2023/12/29 04:45:45;;;;;;;3.47;1.10;;;7.30;1.00;;;;;;5027958;28;20218;-55
2023/12/29 04:48:12;;;;;;;2.60;0.93;;;7.30;1.00;;;;;;5027031;28;20188;-55
2023/12/29 04:50:37;;;;;;;5.90;1.10;;;7.40;1.00;;;;;;5030109;28;20621;-56
2023/12/29 04:53:03;;;;;;;4.83;0.87;;;7.30;1.00;;;;;;5030754;28;20537;-55
2023/12/29 04:55:29;;;;;;;4.43;1.00;;;7.30;1.00;;;;;;5027849;28;20234;-55
2023/12/29 04:57:54;;;;;;;3.93;1.10;;;7.20;1.00;;;;;;5029412;28;20218;-55
2023/12/29 05:00:20;;;;;;;2.17;1.37;;;7.20;1.00;;;;;;5028098;28;20624;-55
2023/12/29 05:02:45;;;;;;;4.47;1.70;;;7.20;1.00;;;;;;5027438;28;20578;-56
2023/12/29 05:05:11;;;;;;;3.90;1.00;;;7.20;83.70;;;;;;5028612;28;20188;-55
2023/12/29 05:07:36;;;;;;;4.67;1.47;;;7.20;99.90;;;;;;5028954;28;20230;-55
2023/12/29 05:10:02;;;;;;;7.83;1.10;;;7.10;1.00;;;;;;5029026;28;20253;-55
2023/12/29 05:12:28;;;;;;;8.00;1.30;;;7.20;54.80;;;;;;5033905;28;20211;-55
2023/12/29 05:14:54;;;;;;;7.83;1.60;;;7.20;99.90;;;;;;5033934;28;20288;-55
2023/12/29 05:17:19;;;;;;;5.07;1.80;;;7.20;1.00;;;;;;5032623;28;20735;-55
2023/12/29 05:19:45;;;;;;;6.83;1.53;;;7.20;99.90;;;;;;5032079;28;20195;-55
2023/12/29 05:22:12;;;;;;;13.63;2.53;;;7.30;99.90;;;;;;5031548;28;20190;-55
2023/12/29 05:24:39;;;;;;;9.23;1.60;;;7.40;1.00;;;;;;5032346;28;20191;-55
2023/12/29 05:27:05;;;;;;;10.73;1.57;;;7.40;99.90;;;;;;5030290;28;20441;-55
2023/12/29 05:29:30;;;;;;;10.13;1.73;;;7.40;99.90;;;;;;5030667;28;20444;-55
2023/12/29 05:31:56;;;;;;;7.73;1.50;;;7.50;99.90;;;;;;5030402;28;20556;-55
2023/12/29 05:34:21;;;;;;;7.23;1.90;;;7.40;99.90;;;;;;5030726;28;20215;-55
2023/12/29 05:36:47;;;;;;;9.00;1.47;;;7.40;1.00;;;;;;5031321;28;20280;-55
2023/12/29 05:39:13;;;;;;;4.10;1.20;;;7.30;1.00;;;;;;5028201;28;20188;-55
2023/12/29 05:41:39;;;;;;;7.63;1.27;;;7.40;20.80;;;;;;5031957;28;20274;-55
2023/12/29 05:44:04;;;;;;;5.17;1.33;;;7.40;99.90;;;;;;5030637;28;20279;-55
2023/12/29 05:46:30;;;;;;;8.20;1.90;;;7.40;99.90;;;;;;5032711;28;20195;-55
2023/12/29 05:48:56;;;;;;;7.33;1.50;;;7.40;57.10;;;;;;5033998;28;20350;-55
2023/12/29 05:51:22;;;;;;;4.50;1.27;;;7.40;89.80;;;;;;5031763;28;20234;-55
2023/12/29 05:53:47;;;;;;;4.77;1.30;;;7.50;99.90;;;;;;5031168;28;20199;-55
2023/12/29 05:56:14;;;;;;;4.53;1.67;;;7.60;92.70;;;;;;5029296;28;20442;-55
2023/12/29 05:58:43;;;;;;;8.00;1.70;;;7.60;96.20;;;;;;5032134;28;20188;-55
2023/12/29 06:01:09;;;;;;;7.27;1.70;;;7.60;1.00;;;;;;5030341;28;20446;-55
2023/12/29 06:03:34;;;;;;;6.70;1.47;;;7.60;99.90;;;;;;5032762;28;20438;-55
2023/12/29 06:06:00;;;;;;;14.00;1.87;;;7.60;99.90;;;;;;5028938;28;20186;-55
2023/12/29 06:08:26;;;;;;;5.30;1.30;;;7.70;99.90;;;;;;5030732;28;20191;-55
2023/12/29 06:10:51;;;;;;;6.13;1.20;;;7.80;99.90;;;;;;5031757;28;20618;-55
2023/12/29 06:13:17;;;;;;;8.63;2.00;;;7.80;99.90;;;;;;5030184;28;20191;-55
2023/12/29 06:15:42;;;;;;;13.07;2.40;;;7.90;63.90;;;;;;5033082;28;20196;-55
2023/12/29 06:18:08;;;;;;;13.77;2.03;;;8.00;1.00;;;;;;5032001;28;20683;-55
2023/12/29 06:20:34;;;;;;;14.07;2.20;;;8.00;1.00;;;;;;5031854;28;20226;-55
2023/12/29 06:23:00;;;;;;;15.43;2.17;;;8.10;99.90;;;;;;5027499;28;20659;-55
2023/12/29 06:25:26;;;;;;;6.07;1.70;;;8.00;99.90;;;;;;5035062;28;20202;-55
2023/12/29 06:27:51;;;;;;;5.00;2.40;;;8.10;1.00;;;;;;5030550;28;20446;-55
2023/12/29 06:30:17;;;;;;;5.23;2.33;;;8.10;1.00;;;;;;5031131;28;20637;-55
2023/12/29 06:32:43;;;;;;;5.10;2.27;;;8.20;99.90;;;;;;5032509;28;20191;-55
2023/12/29 06:35:11;;;;;;;9.93;2.23;;;8.20;99.90;;;;;;5030139;28;20543;-55
2023/12/29 06:37:38;;;;;;;7.07;2.30;;;8.20;1.00;;;;;;5027114;28;20269;-55
2023/12/29 06:40:06;;;;;;;8.80;2.50;;;8.20;1.00;;;;;;5028746;28;20969;-55
2023/12/29 06:42:32;;;;;;;12.70;2.53;;;8.20;1.00;;;;;;5031325;28;20434;-55
2023/12/29 06:44:57;;;;;;;8.83;2.30;;;8.20;1.00;;;;;;5031246;28;20442;-55
2023/12/29 06:47:23;;;;;;;9.80;2.30;;;8.10;1.00;;;;;;5031584;28;20261;-55
2023/12/29 06:49:49;;;;;;;9.27;2.50;;;8.10;1.00;;;;;;5030393;28;20225;-56
2023/12/29 06:52:16;;;;;;;5.97;2.47;;;8.10;1.00;;;;;;5028312;28;20203;-56
2023/12/29 06:54:41;;;;;;;9.83;2.50;;;8.10;1.00;;;;;;5026554;28;20442;-55
2023/12/29 06:57:07;;;;;;;9.13;2.43;;;8.10;50.70;;;;;;5030216;28;20531;-56
2023/12/29 06:59:32;;;;;;;16.00;2.90;;;8.20;1.00;;;;;;5030488;28;20187;-56
2023/12/29 07:01:58;;;;;;;11.27;3.10;;;8.10;1.00;;;;;;5030761;28;20188;-56
2023/12/29 07:04:24;;;;;;;18.43;3.43;;;8.10;1.00;;;;;;5028352;28;20303;-54
2023/12/29 07:06:49;;;;;;;8.30;2.80;;;8.20;1.00;;;;;;5030046;28;20235;-56
2023/12/29 07:09:15;;;;;;;14.67;3.83;;;8.20;99.90;;;;;;5027179;28;20190;-54
2023/12/29 07:11:40;;;;;;;10.20;3.23;;;8.30;99.90;;;;;;5030908;28;20219;-54
2023/12/29 07:14:06;;;;;;;9.50;2.50;;;8.40;1.00;;;;;;5029193;28;20640;-54
2023/12/29 07:16:31;;;;;;;14.60;3.13;;;8.50;99.90;;;;;;5030388;28;20191;-55
2023/12/29 07:18:57;;;;;;;20.57;3.20;;;8.60;99.90;;;;;;5028048;28;20192;-55
2023/12/29 07:21:23;;;;;;;15.63;3.13;;;8.60;8.80;;;;;;5030292;28;20185;-55
2023/12/29 07:23:48;;;;;;;15.50;3.00;;;8.70;1.00;;;;;;5027402;28;20207;-55
2023/12/29 07:26:14;;;;;;;17.37;3.00;;;8.70;1.00;;;;;;5029147;28;20278;-56
2023/12/29 07:28:39;;;;;;;17.10;3.00;;;8.70;1.00;;;;;;5029891;28;20211;-55
2023/12/29 07:31:05;;;;;;;12.10;2.50;;;8.70;1.00;;;;;;5029232;28;20223;-55
2023/12/29 07:33:31;;;;;;;16.70;3.70;;;8.70;1.00;;;;;;5031019;28;20630;-55
2023/12/29 07:35:56;;;;;;;15.33;2.67;;;8.80;1.00;;;;;;5028839;28;20183;-55
2023/12/29 07:38:23;;;;;;;15.00;2.50;;;8.80;1.00;;;;;;5029131;28;20190;-55
2023/12/29 07:40:48;;;;;;;10.07;3.23;;;8.80;1.00;;;;;;5029288;28;20655;-55
2023/12/29 07:43:14;;;;;;;8.30;2.53;;;8.80;99.90;;;;;;5030105;28;20468;-55
2023/12/29 07:45:40;;;;;;;13.10;2.53;;;8.90;99.90;;;;;;5027679;28;20200;-55
2023/12/29 07:48:06;;;;;;;11.37;3.07;;;9.00;99.90;;;;;;5027578;28;20233;-55
2023/12/29 07:50:32;;;;;;;12.57;2.90;;;9.00;99.90;;;;;;5027970;28;20219;-55
2023/12/29 07:52:57;;;;;;;11.50;2.80;;;9.00;99.90;;;;;;5028717;28;20434;-55
2023/12/29 07:55:23;;;;;;;17.43;3.00;;;9.10;99.90;;;;;;5027520;28;20672;-55
2023/12/29 07:57:48;;;;;;;15.53;2.63;;;9.00;99.90;;;;;;5027888;28;20211;-55
2023/12/29 08:00:15;;;;;;;23.33;2.80;;;9.00;99.90;;;;;;5029988;28;20176;-55
2023/12/29 08:02:41;;;;;;;15.67;2.60;;;9.00;99.90;;;;;;5026676;28;20730;-56
2023/12/29 08:05:09;;;;;;;15.50;2.90;;;9.10;99.90;;;;;;5031212;28;20445;-56
2023/12/29 08:07:37;;;;;;;7.83;2.30;;;9.10;99.90;;;;;;5027447;28;20258;-56
2023/12/29 08:10:07;;;;;;;15.97;2.97;;;9.20;99.90;;;;;;5027719;28;20470;-54
2023/12/29 08:12:33;;;;;;;21.07;2.73;;;9.20;99.90;;;;;;5028681;28;20529;-55
2023/12/29 08:15:00;;;;;;;9.67;3.00;;;9.30;99.90;;;;;;5028164;28;20535;-55
2023/12/29 08:17:26;;;;;;;20.30;3.17;;;9.30;99.90;;;;;;5030161;28;20999;-56
2023/12/29 08:19:52;;;;;;;12.93;3.20;;;9.20;99.90;;;;;;5026146;28;20192;-54
2023/12/29 08:22:19;;;;;;;17.23;2.80;;;9.20;99.90;;;;;;5025297;28;20792;-54
2023/12/29 08:24:45;;;;;;;19.47;3.73;;;9.20;99.90;;;;;;5028966;28;20614;-55
2023/12/29 08:27:12;;;;;;;16.43;3.03;;;9.30;99.90;;;;;;5028727;28;20512;-54
2023/12/29 08:29:38;;;;;;;15.13;2.60;;;9.30;99.90;;;;;;5028229;28;20535;-55
2023/12/29 08:32:04;;;;;;;10.33;2.87;;;9.30;99.90;;;;;;5028935;28;20438;-55
2023/12/29 08:34:30;;;;;;;14.50;2.80;;;9.30;99.90;;;;;;5028873;28;20191;-56
2023/12/29 08:36:56;;;;;;;13.93;3.20;;;9.30;99.90;;;;;;5026541;28;20445;-56
2023/12/29 08:39:22;;;;;;;17.67;2.60;;;9.30;99.90;;;;;;5029406;28;20244;-55
2023/12/29 08:41:49;;;;;;;19.40;2.80;;;9.40;99.90;;;;;;5024220;28;20446;-55
2023/12/29 08:44:15;;;;;;;25.03;2.87;;;9.50;99.90;;;;;;5028079;28;20648;-55
2023/12/29 08:46:40;;;;;;;16.47;2.53;;;9.40;99.90;;;;;;5027652;28;20493;-56
2023/12/29 08:49:07;;;;;;;16.33;2.73;;;9.50;98.40;;;;;;5028140;28;20563;-54
2023/12/29 08:51:32;;;;;;;17.03;2.33;;;9.50;95.30;;;;;;5027743;28;20662;-55
2023/12/29 08:53:58;;;;;;;15.00;2.77;;;9.60;91.70;;;;;;5030434;28;20474;-56
2023/12/29 08:56:23;;;;;;;10.57;2.43;;;9.60;89.90;;;;;;5027833;28;20230;-56
2023/12/29 08:58:49;;;;;;;15.60;3.10;;;9.70;70.00;;;;;;5029686;28;20226;-56
2023/12/29 09:01:15;;;;;;;14.53;3.20;;;9.70;72.00;;;;;;5025935;28;20196;-55
2023/12/29 09:03:40;;;;;;;16.27;3.30;;;9.70;76.70;;;;;;5025912;28;20192;-56
2023/12/29 09:06:08;;;;;;;18.37;2.50;;;9.70;76.80;;;;;;5023027;28;20243;-55
2023/12/29 09:08:34;;;;;;;9.93;3.17;;;9.70;82.70;;;;;;5042969;28;20187;-55
2023/12/29 09:11:00;;;;;;;7.60;2.33;;;9.70;84.40;;;;;;5026326;28;20851;-55
2023/12/29 09:13:26;;;;;;;13.13;2.90;;;9.60;93.70;;;;;;5031825;28;20470;-56
2023/12/29 09:15:53;;;;;;;7.03;1.50;;;9.50;99.90;;;;;;5027013;28;20551;-56
2023/12/29 09:18:18;;;;;;;8.73;1.90;;;9.20;99.90;;;;;;5027376;28;20983;-55
2023/12/29 09:20:44;;;;;;;5.23;2.53;;;9.00;99.90;;;;;;5028386;28;20450;-54
2023/12/29 09:23:10;;;;;;;6.30;1.93;;;8.80;99.90;;;;;;5030600;28;20242;-54
2023/12/29 09:25:35;;;;;;;5.83;1.73;;;8.70;99.90;;;;;;5030027;28;20192;-55
2023/12/29 09:28:01;;;;;;;6.53;1.90;;;8.50;99.90;;;;;;5028145;28;20446;-54
2023/12/29 09:30:26;;;;;;;8.13;2.70;;;8.50;1.00;;;;;;5028031;28;20242;-55
2023/12/29 09:32:52;;;;;;;9.40;2.00;;;8.40;90.80;;;;;;5026350;28;20650;-55
2023/12/29 09:35:17;;;;;;;5.43;2.23;;;8.30;99.90;;;;;;5029943;28;20282;-56
2023/12/29 09:37:43;;;;;;;3.20;1.70;;;8.30;99.90;;;;;;5026983;28;20195;-55
2023/12/29 09:40:10;;;;;;;11.77;2.40;;;8.20;1.00;;;;;;5024959;28;20191;-55
2023/12/29 09:42:38;;;;;;;14.60;2.90;;;8.20;78.60;;;;;;5030320;28;20184;-55
2023/12/29 09:45:09;;;;;;;7.57;2.57;;;8.30;99.90;;;;;;5022967;28;20461;-55
2023/12/29 09:47:38;;;;;;;12.60;2.73;;;8.30;99.90;;;;;;5027592;28;20461;-55
2023/12/29 09:50:05;;;;;;;10.33;3.00;;;8.30;99.90;;;;;;5030045;28;20607;-56
2023/12/29 09:52:31;;;;;;;11.33;2.60;;;8.30;99.90;;;;;;5025485;28;20937;-55
2023/12/29 09:54:57;;;;;;;10.30;3.20;;;8.30;99.90;;;;;;5031377;28;20524;-56
2023/12/29 09:57:24;;;;;;;15.47;3.47;;;8.30;99.90;;;;;;5032221;28;20849;-55
2023/12/29 09:59:54;;;;;;;12.87;3.30;;;8.30;99.90;;;;;;5032320;28;20453;-55
2023/12/29 10:02:22;;;;;;;14.07;3.37;;;8.40;99.90;;;;;;5035380;28;20925;-55
2023/12/29 10:04:47;;;;;;;17.60;3.40;;;8.40;99.90;;;;;;5029257;28;20513;-55
2023/12/29 10:07:26;;;;;;;11.97;3.43;;;8.50;1.00;;;;;;5032471;28;20945;-55
2023/12/29 10:09:58;;;;;;;13.27;3.20;;;8.60;99.90;;;;;;5029318;28;20214;-56
2023/12/29 10:12:25;;;;;;;10.80;2.83;;;8.70;27.50;;;;;;5029978;28;20453;-54
2023/12/29 10:15:19;;;;;;;15.93;3.03;;;8.70;1.00;;;;;;5033313;28;20452;-54
2023/12/29 10:18:06;;;;;;;16.17;3.20;;;8.80;1.00;;;;;;5032397;28;20492;-54
2023/12/29 10:20:45;;;;;;;14.30;2.47;;;8.80;1.00;;;;;;5029789;28;20449;-55
2023/12/29 10:23:25;;;;;;;12.63;2.80;;;8.80;1.00;;;;;;5033553;28;20442;-55
2023/12/29 10:25:51;;;;;;;19.23;3.10;;;8.80;1.00;;;;;;5029006;28;20485;-55
2023/12/29 10:28:20;;;;;;;12.47;2.50;;;8.80;99.90;;;;;;5029757;28;20427;-55
2023/12/29 10:30:47;;;;;;;14.80;2.73;;;8.90;99.90;;;;;;5030100;28;20478;-55
2023/12/29 10:33:21;;;;;;;10.13;2.47;;;9.00;99.90;;;;;;5041472;28;20430;-55
2023/12/29 10:36:03;;;;;;;16.40;2.30;;;9.20;99.90;;;;;;5034274;28;20438;-55
2023/12/29 10:38:32;;;;;;;14.87;2.37;;;9.40;99.90;;;;;;5034726;28;20473;-55
2023/12/29 10:41:14;;;;;;;12.47;2.50;;;9.60;99.90;;;;;;5034540;28;20447;-55
2023/12/29 10:43:41;;;;;;;7.60;2.30;;;9.60;99.90;;;;;;5025345;28;20442;-54
2023/12/29 10:46:08;;;;;;;17.00;2.93;;;9.60;99.90;;;;;;5030127;28;20561;-55
2023/12/29 10:48:34;;;;;;;13.83;2.63;;;9.70;99.90;;;;;;5029896;28;20434;-55
2023/12/29 10:51:03;;;;;;;10.87;3.13;;;9.80;99.90;;;;;;5026365;28;20486;-54
2023/12/29 10:53:36;;;;;;;11.77;2.20;;;9.80;99.90;;;;;;5028276;28;20484;-54
2023/12/29 10:56:01;;;;;;;11.57;2.40;;;9.70;99.90;;;;;;5031963;28;20518;-54
2023/12/29 10:58:29;;;;;;;18.17;3.07;;;9.80;99.90;;;;;;5027974;28;20568;-54
2023/12/29 11:00:59;;;;;;;8.30;2.50;;;10.40;99.90;;;;;;5030174;28;20190;-55
2023/12/29 11:03:25;;;;;;;15.33;2.80;;;10.40;87.30;;;;;;5033885;28;20441;-55
2023/12/29 11:06:01;;;;;;;13.60;2.80;;;10.10;90.00;;;;;;5024812;28;20442;-54
2023/12/29 11:08:26;;;;;;;18.33;2.67;;;9.80;94.70;;;;;;5030889;28;20425;-55
2023/12/29 11:10:54;;;;;;;19.67;3.03;;;9.50;99.90;;;;;;5031560;28;20469;-54
2023/12/29 11:13:21;;;;;;;10.33;2.40;;;9.30;99.90;;;;;;5031005;28;20206;-55
2023/12/29 11:15:47;;;;;;;16.37;2.43;;;9.30;99.90;;;;;;5039831;28;20442;-55
2023/12/29 11:18:14;;;;;;;11.27;3.07;;;9.30;99.90;;;;;;5027168;28;20453;-54
2023/12/29 11:20:41;;;;;;;21.63;3.67;;;9.20;99.90;;;;;;5028247;28;20447;-54
2023/12/29 11:23:09;;;;;;;8.23;2.07;;;9.10;99.90;;;;;;5021612;28;20547;-55
2023/12/29 11:25:35;;;;;;;14.87;2.70;;;9.10;99.90;;;;;;5022729;28;20596;-55
2023/12/29 11:28:02;;;;;;;12.43;2.67;;;9.00;99.90;;;;;;5032159;28;20434;-55
2023/12/29 11:30:27;;;;;;;14.37;3.00;;;9.10;99.90;;;;;;5035716;28;20478;-55
2023/12/29 11:33:02;;;;;;;12.70;3.27;;;9.10;99.90;;;;;;5030364;28;20437;-55
2023/12/29 11:35:50;;;;;;;17.10;3.23;;;9.10;99.90;;;;;;5029239;28;20577;-55
2023/12/29 11:38:47;;;;;;;14.33;2.83;;;9.20;99.90;;;;;;5020639;28;21534;-55
2023/12/29 11:41:33;;;;;;;8.23;2.10;;;9.20;99.90;;;;;;5021859;28;20513;-54
2023/12/29 11:44:00;;;;;;;13.87;3.57;;;9.30;99.90;;;;;;5030316;28;20434;-52
2023/12/29 11:46:35;;;;;;;10.80;2.60;;;9.30;99.90;;;;;;5034864;28;20438;-53
2023/12/29 11:49:04;;;;;;;11.50;2.50;;;9.40;99.90;;;;;;5028239;28;20785;-52
2023/12/29 11:51:40;;;;;;;13.30;2.53;;;9.50;99.90;;;;;;5030760;28;20258;-50
2023/12/29 11:54:07;;;;;;;8.33;2.30;;;9.70;99.90;;;;;;5027691;28;20853;-49
2023/12/29 11:56:43;;;;;;;9.83;2.13;;;9.60;99.90;;;;;;5033949;28;20441;-49
2023/12/29 11:59:46;;;;;;;11.00;3.40;;;9.60;99.90;;;;;;5032434;28;20457;-49
2023/12/29 12:02:28;;;;;;;6.40;2.47;;;9.60;99.90;;;;;;5035913;28;20468;-51
2023/12/29 12:04:53;;;;;;;7.10;1.90;;;9.70;99.90;;;;;;5036099;28;20414;-50
2023/12/29 12:07:22;;;;;;;8.13;2.93;;;9.70;99.90;;;;;;5034675;28;20572;-50
2023/12/29 12:09:53;;;;;;;10.23;2.03;;;9.80;99.90;;;;;;5028608;28;20245;-51
2023/12/29 12:12:41;;;;;;;8.10;2.27;;;9.80;99.90;;;;;;5032025;28;20445;-49
2023/12/29 12:15:29;;;;;;;10.40;2.23;;;9.80;99.90;;;;;;5028322;28;20457;-52
2023/12/29 12:17:56;;;;;;;10.33;2.60;;;9.70;99.90;;;;;;5027220;28;20446;-52
2023/12/29 12:20:22;;;;;;;13.33;2.40;;;9.70;99.90;;;;;;5025960;28;20782;-52
2023/12/29 12:22:54;;;;;;;4.67;2.20;;;9.80;99.90;;;;;;5030259;28;20438;-52
2023/12/29 12:25:20;;;;;;;14.90;2.70;;;10.20;99.90;;;;;;5028973;28;20856;-52
2023/12/29 12:27:46;;;;;;;8.17;2.43;;;10.90;80.60;;;;;;5029873;28;20446;-53
2023/12/29 12:30:18;;;;;;;5.33;1.83;;;11.80;25.80;;;;;;5023462;28;20218;-52
2023/12/29 12:32:44;;;;;;;7.00;1.90;;;13.00;1.00;;;;;;5026594;28;20187;-53
2023/12/29 12:35:16;;;;;;;7.90;2.00;;;13.60;1.00;;;;;;5029559;28;20963;-52
2023/12/29 12:37:42;;;;;;;6.87;2.00;;;14.50;1.00;;;;;;5029277;28;20199;-53
2023/12/29 12:40:08;;;;;;;7.53;2.00;;;14.20;1.00;;;;;;5026808;28;20517;-52
2023/12/29 12:42:41;;;;;;;11.70;2.20;;;14.10;1.00;;;;;;5024779;28;20200;-53
2023/12/29 12:45:11;;;;;;;10.67;2.00;;;14.60;1.00;;;;;;5027570;28;20434;-53
2023/12/29 12:47:50;;;;;;;11.47;2.40;;;15.50;1.00;;;;;;5026559;28;20445;-53
2023/12/29 12:50:16;;;;;;;7.20;2.00;;;15.00;1.00;;;;;;5028351;28;20469;-53
2023/12/29 12:52:41;;;;;;;8.17;2.10;;;13.70;1.00;;;;;;5023905;28;20450;-52
2023/12/29 12:55:08;;;;;;;7.80;1.87;;;12.40;1.00;;;;;;5032006;28;20438;-52